Time;durP1;ratioP1;P1;durP2;ratioP2;P2;SDS_P1;SDS_P2;PMS_P1;PMS_P2;Temp;Humidity;BMP_temperature;BMP_pressure;BME280_temperature;BME280_humidity;BME280_pressure;Samples;Min_cycle;Max_cycle;Signal;HPM_P1;HPM_P2
2022/08/22 00:01:14;;;;;;;5.75;3.53;;;16.60;99.90;;;;;;5123905;27;20091;-73
2022/08/22 00:04:09;;;;;;;6.35;3.17;;;16.60;99.90;;;;;;5124172;27;20665;-74
2022/08/22 00:06:42;;;;;;;7.85;3.40;;;16.60;99.90;;;;;;5110471;27;20403;-74
2022/08/22 00:09:36;;;;;;;4.45;3.08;;;16.60;99.90;;;;;;5133677;27;20082;-74
2022/08/22 00:12:21;;;;;;;4.65;3.13;;;16.60;99.90;;;;;;5121617;27;20448;-72
2022/08/22 00:15:26;;;;;;;4.93;3.38;;;16.50;99.90;;;;;;5112661;27;20062;-74
2022/08/22 00:18:10;;;;;;;4.15;3.03;;;16.40;99.90;;;;;;5134262;27;20077;-73
2022/08/22 00:20:47;;;;;;;5.03;3.20;;;16.40;99.90;;;;;;5123843;27;20536;-74
2022/08/22 00:23:36;;;;;;;4.10;3.08;;;16.40;99.90;;;;;;5138205;27;20904;-73
2022/08/22 00:26:19;;;;;;;4.70;3.20;;;16.40;99.90;;;;;;5127674;27;20082;-74
2022/08/22 00:28:57;;;;;;;9.38;3.30;;;16.40;99.90;;;;;;5130999;27;20153;-73
2022/08/22 00:31:42;;;;;;;4.20;3.17;;;16.40;99.90;;;;;;5122565;27;20082;-73
2022/08/22 00:34:22;;;;;;;6.28;2.97;;;16.40;99.90;;;;;;5130612;27;20116;-73
2022/08/22 00:37:02;;;;;;;8.70;3.70;;;16.40;99.90;;;;;;5138249;27;20089;-74
2022/08/22 00:39:30;;;;;;;6.03;2.97;;;16.40;99.90;;;;;;5127055;27;20137;-73
2022/08/22 00:42:23;;;;;;;5.10;3.03;;;16.30;99.90;;;;;;5131644;27;20047;-72
2022/08/22 00:44:51;;;;;;;3.53;2.70;;;16.40;99.90;;;;;;5126901;27;20866;-74
2022/08/22 00:47:30;;;;;;;6.53;3.40;;;16.30;99.90;;;;;;5136476;27;20355;-73
2022/08/22 00:50:18;;;;;;;4.90;3.13;;;16.30;99.90;;;;;;5113885;27;20230;-74
2022/08/22 00:53:13;;;;;;;5.32;2.83;;;16.30;99.90;;;;;;5132151;27;20050;-73
2022/08/22 00:55:55;;;;;;;2.90;2.58;;;16.40;99.90;;;;;;5044719;27;20508;-74
2022/08/22 00:58:41;;;;;;;6.50;3.58;;;16.30;99.90;;;;;;5130521;27;20042;-73
2022/08/22 01:01:11;;;;;;;6.35;3.67;;;16.30;99.90;;;;;;5122041;27;20871;-74
2022/08/22 01:03:43;;;;;;;5.47;2.55;;;16.30;99.90;;;;;;5131972;27;20049;-73
2022/08/22 01:06:17;;;;;;;6.47;3.10;;;16.30;99.90;;;;;;5119780;27;20602;-73
2022/08/22 01:08:43;;;;;;;8.98;3.58;;;16.30;99.90;;;;;;5122755;27;20103;-73
2022/08/22 01:11:26;;;;;;;4.90;3.00;;;16.30;99.90;;;;;;5101087;27;20833;-74
2022/08/22 01:14:00;;;;;;;6.90;3.28;;;16.30;99.90;;;;;;5133906;27;20046;-73
2022/08/22 01:16:40;;;;;;;7.00;3.90;;;16.30;99.90;;;;;;5120451;27;20120;-74
2022/08/22 01:19:47;;;;;;;5.35;3.20;;;16.30;99.90;;;;;;5128843;27;20633;-73
2022/08/22 01:22:47;;;;;;;5.80;2.97;;;16.30;99.90;;;;;;5124163;27;20054;-73
2022/08/22 01:25:37;;;;;;;7.07;3.13;;;16.30;99.90;;;;;;5120355;27;20059;-73
2022/08/22 01:28:08;;;;;;;5.88;3.55;;;16.30;99.90;;;;;;5131994;27;20054;-72
2022/08/22 01:30:34;;;;;;;3.38;2.80;;;16.30;99.90;;;;;;5129137;27;20118;-73
2022/08/22 01:33:37;;;;;;;4.15;2.90;;;16.30;99.90;;;;;;5125965;27;20083;-72
2022/08/22 01:36:28;;;;;;;5.07;3.22;;;16.30;99.90;;;;;;5127493;27;20065;-73
2022/08/22 01:39:28;;;;;;;6.38;3.63;;;16.20;99.90;;;;;;5139034;27;20043;-73
2022/08/22 01:42:21;;;;;;;3.45;3.03;;;16.20;99.90;;;;;;5130495;27;20051;-72
2022/08/22 01:44:49;;;;;;;7.20;3.22;;;16.20;99.90;;;;;;5125160;27;20123;-74
2022/08/22 01:47:25;;;;;;;4.65;3.55;;;16.20;99.90;;;;;;5132626;27;20050;-74
2022/08/22 01:50:01;;;;;;;5.53;3.13;;;16.20;99.90;;;;;;5133306;27;20047;-73
2022/08/22 01:52:58;;;;;;;7.38;3.58;;;16.20;99.90;;;;;;5136923;27;20058;-73
2022/08/22 01:55:32;;;;;;;5.18;3.20;;;16.20;99.90;;;;;;5135875;27;20051;-74
2022/08/22 01:58:02;;;;;;;5.05;2.95;;;16.10;99.90;;;;;;5131295;27;20046;-74
2022/08/22 02:00:50;;;;;;;5.05;3.50;;;16.20;99.90;;;;;;5136214;27;20069;-74
2022/08/22 02:03:26;;;;;;;6.18;3.08;;;16.20;99.90;;;;;;5137542;27;20660;-73
2022/08/22 02:06:07;;;;;;;4.72;3.20;;;16.20;99.90;;;;;;5121243;27;20046;-73
2022/08/22 02:09:04;;;;;;;8.00;4.50;;;16.20;99.90;;;;;;5135640;27;20042;-72
2022/08/22 02:11:39;;;;;;;6.78;3.15;;;16.20;99.90;;;;;;5127830;27;20938;-75
2022/08/22 02:14:42;;;;;;;6.72;2.78;;;16.10;99.90;;;;;;5128725;27;20097;-75
2022/08/22 02:17:30;;;;;;;5.80;3.03;;;16.10;99.90;;;;;;5120388;27;20487;-74
2022/08/22 02:20:17;;;;;;;6.57;2.85;;;16.00;99.90;;;;;;5125114;27;20078;-74
2022/08/22 02:23:06;;;;;;;3.30;2.30;;;16.00;99.90;;;;;;5130239;27;20114;-73
2022/08/22 02:25:45;;;;;;;7.00;3.20;;;16.00;99.90;;;;;;5109877;27;20059;-73
2022/08/22 02:28:57;;;;;;;9.38;3.20;;;15.90;99.90;;;;;;5134153;27;20073;-74
2022/08/22 02:31:52;;;;;;;8.25;3.17;;;15.90;99.90;;;;;;5102975;27;20051;-74
2022/08/22 02:34:40;;;;;;;6.03;3.40;;;15.90;99.90;;;;;;5134839;27;20055;-73
2022/08/22 02:37:13;;;;;;;5.68;3.67;;;15.90;99.90;;;;;;5126093;27;20065;-74
2022/08/22 02:40:14;;;;;;;6.43;3.40;;;15.90;99.90;;;;;;5131558;27;20045;-74
2022/08/22 02:43:01;;;;;;;4.22;2.85;;;15.80;99.90;;;;;;5103408;27;20058;-74
2022/08/22 02:45:43;;;;;;;4.22;3.33;;;15.80;99.90;;;;;;5135030;27;20046;-73
2022/08/22 02:48:20;;;;;;;4.95;2.97;;;15.70;99.90;;;;;;5129457;27;20106;-74
2022/08/22 02:50:53;;;;;;;6.10;3.70;;;15.70;99.90;;;;;;5130719;27;20080;-74
2022/08/22 02:53:54;;;;;;;4.00;3.40;;;15.70;99.90;;;;;;5114568;27;20043;-74
2022/08/22 02:56:33;;;;;;;4.00;2.55;;;15.70;99.90;;;;;;5128783;27;20152;-74
2022/08/22 02:59:34;;;;;;;4.45;2.78;;;15.60;99.90;;;;;;5133960;27;20097;-75
2022/08/22 03:02:27;;;;;;;3.20;2.70;;;15.60;99.90;;;;;;5077099;27;20057;-74
2022/08/22 03:05:19;;;;;;;4.72;3.03;;;15.50;99.90;;;;;;5131639;27;20871;-74
2022/08/22 03:08:11;;;;;;;6.78;3.30;;;15.50;99.90;;;;;;5131391;27;20050;-74
2022/08/22 03:10:49;;;;;;;4.63;3.13;;;15.50;99.90;;;;;;5130093;27;20046;-73
2022/08/22 03:14:13;;;;;;;4.60;3.03;;;15.50;99.90;;;;;;5134608;27;20129;-74
2022/08/22 03:17:04;;;;;;;5.60;3.17;;;15.50;99.90;;;;;;5022283;28;20266;-74
2022/08/22 03:19:47;;;;;;;5.32;3.80;;;14.80;99.90;;;;;;5021128;28;20881;-73
2022/08/22 03:22:19;;;;;;;6.72;3.08;;;15.40;99.90;;;;;;5119737;27;20051;-73
2022/08/22 03:25:12;;;;;;;5.82;2.88;;;15.40;99.90;;;;;;5108548;27;20054;-75
2022/08/22 03:27:43;;;;;;;4.75;2.97;;;15.40;99.90;;;;;;5135628;27;20047;-73
2022/08/22 03:30:39;;;;;;;4.30;3.17;;;15.30;99.90;;;;;;5132211;27;20680;-74
2022/08/22 03:33:27;;;;;;;5.25;3.05;;;15.40;99.90;;;;;;5129014;27;20052;-74
2022/08/22 03:36:20;;;;;;;6.20;4.00;;;15.30;99.90;;;;;;5134603;27;21174;-74
2022/08/22 03:39:12;;;;;;;5.53;3.00;;;15.30;99.90;;;;;;5130629;27;20554;-74
2022/08/22 03:41:58;;;;;;;5.95;3.30;;;15.30;99.90;;;;;;5117300;27;21004;-73
2022/08/22 03:44:42;;;;;;;6.47;3.20;;;15.30;99.90;;;;;;5121988;27;20051;-73
2022/08/22 03:47:36;;;;;;;6.43;3.45;;;15.30;99.90;;;;;;5128387;27;20046;-74
2022/08/22 03:50:11;;;;;;;5.15;3.35;;;15.20;99.90;;;;;;5133450;27;20946;-73
2022/08/22 03:53:17;;;;;;;4.05;3.17;;;15.20;99.90;;;;;;5130842;27;20043;-74
2022/08/22 03:56:20;;;;;;;3.92;3.10;;;15.30;99.90;;;;;;5130532;27;20058;-74
2022/08/22 03:59:17;;;;;;;4.55;3.88;;;15.30;99.90;;;;;;5129631;27;20129;-73
2022/08/22 04:02:02;;;;;;;5.10;3.28;;;15.30;99.90;;;;;;5128309;27;20043;-73
2022/08/22 04:04:56;;;;;;;4.95;3.75;;;15.30;99.90;;;;;;5131777;27;20089;-74
2022/08/22 04:07:30;;;;;;;4.70;3.85;;;15.30;99.90;;;;;;5119746;27;21120;-74
2022/08/22 04:10:25;;;;;;;6.68;4.07;;;15.30;99.90;;;;;;5110248;27;20504;-73
2022/08/22 04:13:05;;;;;;;3.70;2.75;;;15.30;99.90;;;;;;5126301;27;20035;-73
2022/08/22 04:15:55;;;;;;;7.07;3.45;;;15.40;99.90;;;;;;5122499;27;20141;-73
2022/08/22 04:18:44;;;;;;;4.53;3.00;;;15.40;99.90;;;;;;5116408;27;20810;-73
2022/08/22 04:21:26;;;;;;;6.88;3.75;;;15.40;99.90;;;;;;5108685;27;20532;-74
2022/08/22 04:24:30;;;;;;;4.35;3.15;;;15.40;99.90;;;;;;5102913;27;20195;-74
2022/08/22 04:27:21;;;;;;;7.38;3.63;;;15.50;99.90;;;;;;5135156;27;20043;-74
2022/08/22 04:29:53;;;;;;;6.25;3.42;;;15.50;99.90;;;;;;5138408;27;20161;-73
2022/08/22 04:32:37;;;;;;;4.57;3.40;;;15.50;99.90;;;;;;5112413;27;20481;-73
2022/08/22 04:35:16;;;;;;;5.07;3.67;;;15.50;99.90;;;;;;5135264;27;20039;-73
2022/08/22 04:37:52;;;;;;;5.10;3.33;;;15.50;99.90;;;;;;5128854;27;20317;-73
2022/08/22 04:40:33;;;;;;;6.15;3.63;;;15.50;99.90;;;;;;5134497;27;20600;-74
2022/08/22 04:43:12;;;;;;;5.43;3.17;;;15.50;99.90;;;;;;5137453;27;20438;-74
2022/08/22 04:45:48;;;;;;;5.28;2.75;;;15.40;99.90;;;;;;5137302;27;20091;-74
2022/08/22 04:48:28;;;;;;;4.82;3.15;;;15.50;99.90;;;;;;5132742;27;20063;-75
2022/08/22 04:51:21;;;;;;;5.13;3.70;;;15.50;99.90;;;;;;5133575;27;20051;-75
2022/08/22 04:54:12;;;;;;;5.13;3.40;;;15.50;99.90;;;;;;5128482;27;20049;-73
2022/08/22 04:57:01;;;;;;;4.60;2.88;;;15.50;99.90;;;;;;5129968;27;20082;-74
2022/08/22 04:59:29;;;;;;;7.20;3.95;;;15.50;99.90;;;;;;5135812;27;20298;-74
2022/08/22 05:01:57;;;;;;;3.58;3.22;;;15.60;99.90;;;;;;5135952;27;20054;-74
2022/08/22 05:04:34;;;;;;;8.27;3.97;;;15.60;99.90;;;;;;5121766;27;20092;-74
2022/08/22 05:07:23;;;;;;;4.70;4.05;;;15.70;99.90;;;;;;5121587;27;20047;-73
2022/08/22 05:09:55;;;;;;;6.43;3.85;;;15.70;99.90;;;;;;5134657;27;20046;-73
2022/08/22 05:12:34;;;;;;;4.78;3.40;;;15.70;99.90;;;;;;5104203;27;20059;-74
2022/08/22 05:15:12;;;;;;;5.78;3.78;;;15.70;99.90;;;;;;5133715;27;20047;-73
2022/08/22 05:17:40;;;;;;;7.88;3.70;;;15.80;99.90;;;;;;5127591;27;20122;-75
2022/08/22 05:20:10;;;;;;;9.07;4.18;;;15.80;99.90;;;;;;5137246;27;20093;-75
2022/08/22 05:22:41;;;;;;;4.10;3.70;;;15.80;99.90;;;;;;5138589;27;20077;-73
2022/08/22 05:25:16;;;;;;;6.72;4.05;;;15.80;99.90;;;;;;5123979;27;20061;-76
2022/08/22 05:27:49;;;;;;;4.55;3.40;;;15.80;99.90;;;;;;5137967;27;20236;-75
2022/08/22 05:30:22;;;;;;;4.03;3.40;;;15.90;99.90;;;;;;5132555;27;20852;-74
2022/08/22 05:33:18;;;;;;;5.05;3.83;;;16.00;99.90;;;;;;5130705;27;20486;-74
2022/08/22 05:35:53;;;;;;;7.07;4.88;;;16.00;99.90;;;;;;5112550;27;20925;-79
2022/08/22 05:38:26;;;;;;;6.95;4.30;;;16.10;99.90;;;;;;5129151;27;20050;-78
2022/08/22 05:41:03;;;;;;;7.07;3.72;;;16.10;99.90;;;;;;5136100;27;20122;-76
2022/08/22 05:43:33;;;;;;;6.38;4.15;;;16.20;99.90;;;;;;5135759;27;20599;-78
2022/08/22 05:46:00;;;;;;;4.70;3.88;;;16.30;99.90;;;;;;5126089;27;20121;-79
2022/08/22 05:48:37;;;;;;;5.38;3.83;;;16.30;99.90;;;;;;5133205;27;20076;-79
2022/08/22 05:51:20;;;;;;;4.35;3.90;;;16.40;99.90;;;;;;5130571;27;20042;-74
2022/08/22 05:53:52;;;;;;;8.77;3.75;;;16.40;99.90;;;;;;5113137;27;20045;-77
2022/08/22 05:56:36;;;;;;;4.97;4.57;;;16.40;99.90;;;;;;5128365;27;20681;-77
2022/08/22 05:59:16;;;;;;;5.47;4.97;;;16.40;99.90;;;;;;5115545;27;20061;-78
2022/08/22 06:01:56;;;;;;;5.22;4.22;;;16.40;99.90;;;;;;5133792;27;20043;-75
2022/08/22 06:04:31;;;;;;;6.88;4.50;;;16.40;99.90;;;;;;5130578;27;20042;-78
2022/08/22 06:07:44;;;;;;;5.25;4.00;;;16.50;99.90;;;;;;5133483;27;20119;-76
2022/08/22 06:10:24;;;;;;;6.30;4.60;;;16.60;99.90;;;;;;5128623;27;20050;-78
2022/08/22 06:13:02;;;;;;;7.78;5.70;;;16.70;99.90;;;;;;5130218;27;20050;-78
2022/08/22 06:15:50;;;;;;;7.78;5.35;;;16.70;99.90;;;;;;5123105;27;20047;-77
2022/08/22 06:18:21;;;;;;;12.05;5.38;;;16.80;99.90;;;;;;5133690;27;20034;-77
2022/08/22 06:20:54;;;;;;;12.32;5.70;;;16.90;99.90;;;;;;5137902;27;20241;-77
2022/08/22 06:23:45;;;;;;;11.20;6.05;;;17.00;99.90;;;;;;5138106;27;20046;-77
2022/08/22 06:26:12;;;;;;;7.20;4.88;;;17.10;99.90;;;;;;5134695;27;20058;-76
2022/08/22 06:28:41;;;;;;;10.20;7.15;;;17.20;99.90;;;;;;5138778;27;20051;-76
2022/08/22 06:31:18;;;;;;;11.55;5.65;;;17.20;99.90;;;;;;5134365;27;20051;-74
2022/08/22 06:33:55;;;;;;;12.05;5.78;;;17.30;99.90;;;;;;5133129;27;20085;-78
2022/08/22 06:36:32;;;;;;;8.23;4.95;;;17.30;99.90;;;;;;5137513;27;20143;-75
2022/08/22 06:39:15;;;;;;;9.35;5.57;;;17.40;99.90;;;;;;5124428;27;20050;-77
2022/08/22 06:42:01;;;;;;;11.85;6.05;;;17.50;99.90;;;;;;5130825;27;20046;-77
2022/08/22 06:44:47;;;;;;;10.63;5.30;;;17.60;99.90;;;;;;5136965;27;20127;-76
2022/08/22 06:47:43;;;;;;;10.30;6.32;;;17.70;99.90;;;;;;5129880;27;20092;-77
2022/08/22 06:50:28;;;;;;;7.05;5.15;;;17.80;99.90;;;;;;5127066;27;20043;-74
2022/08/22 06:53:14;;;;;;;7.68;5.40;;;17.90;99.90;;;;;;5127612;27;20168;-77
2022/08/22 06:55:46;;;;;;;8.05;5.78;;;18.00;99.90;;;;;;5133008;27;20047;-78
2022/08/22 06:58:17;;;;;;;7.88;5.47;;;18.00;99.90;;;;;;5132744;27;20043;-77
2022/08/22 07:00:45;;;;;;;9.98;6.07;;;18.00;99.90;;;;;;5130345;27;20078;-75
2022/08/22 07:03:28;;;;;;;8.90;5.22;;;18.10;99.90;;;;;;5131359;27;20081;-78
2022/08/22 07:05:55;;;;;;;8.85;5.03;;;18.10;99.90;;;;;;5121767;27;20447;-78
2022/08/22 07:08:23;;;;;;;8.98;5.60;;;18.20;99.90;;;;;;5125297;27;20051;-74
2022/08/22 07:11:13;;;;;;;9.23;5.15;;;18.30;99.90;;;;;;5135197;27;20054;-79
2022/08/22 07:13:44;;;;;;;9.85;5.25;;;18.40;99.90;;;;;;5137404;27;20046;-77
2022/08/22 07:16:10;;;;;;;10.88;5.80;;;18.50;99.90;;;;;;5119130;27;20107;-78
2022/08/22 07:18:47;;;;;;;8.02;6.13;;;18.50;99.90;;;;;;5129343;27;20050;-77
2022/08/22 07:21:26;;;;;;;10.52;5.53;;;18.60;99.90;;;;;;5125075;27;20055;-75
2022/08/22 07:23:54;;;;;;;8.77;5.25;;;18.70;99.90;;;;;;5132104;27;20131;-78
2022/08/22 07:26:45;;;;;;;8.98;6.28;;;18.80;99.90;;;;;;5132243;27;20134;-78
2022/08/22 07:29:19;;;;;;;10.82;6.15;;;18.80;99.90;;;;;;5122033;27;20137;-76
2022/08/22 07:32:17;;;;;;;9.85;6.05;;;18.90;99.90;;;;;;5133407;27;20047;-79
2022/08/22 07:34:55;;;;;;;10.52;6.43;;;19.00;99.90;;;;;;5126214;27;20221;-75
2022/08/22 07:37:39;;;;;;;14.40;5.57;;;18.90;99.90;;;;;;5139147;27;20043;-75
2022/08/22 07:40:30;;;;;;;12.00;5.85;;;19.00;99.90;;;;;;5119940;27;20051;-77
2022/08/22 07:43:23;;;;;;;12.27;6.47;;;19.10;99.90;;;;;;5129276;27;20779;-76
2022/08/22 07:45:57;;;;;;;14.10;6.50;;;19.20;99.90;;;;;;5124062;27;20055;-76
2022/08/22 07:48:27;;;;;;;9.65;6.03;;;19.20;99.90;;;;;;5124917;27;20085;-74
2022/08/22 07:50:59;;;;;;;8.43;6.57;;;19.30;99.90;;;;;;5123955;27;20425;-76
2022/08/22 07:53:37;;;;;;;11.55;5.43;;;19.40;99.90;;;;;;5124120;27;20107;-77
2022/08/22 07:56:06;;;;;;;15.73;7.68;;;19.40;99.90;;;;;;5119751;27;20073;-73
2022/08/22 07:58:36;;;;;;;16.15;6.00;;;19.40;99.90;;;;;;5129884;27;20057;-77
2022/08/22 08:01:02;;;;;;;9.25;5.60;;;19.50;99.90;;;;;;5131437;27;20211;-76
2022/08/22 08:03:30;;;;;;;7.63;4.30;;;19.60;99.90;;;;;;5109786;27;20051;-78
2022/08/22 08:05:56;;;;;;;9.80;4.90;;;19.70;99.90;;;;;;5102412;27;20053;-79
2022/08/22 08:08:49;;;;;;;11.07;5.43;;;20.20;99.90;;;;;;5123481;27;20154;-79
2022/08/22 08:11:17;;;;;;;10.60;4.90;;;20.90;99.90;;;;;;5137433;27;20057;-76
2022/08/22 08:13:53;;;;;;;7.40;5.03;;;21.70;99.90;;;;;;5126636;27;20973;-77
2022/08/22 08:16:23;;;;;;;5.60;3.63;;;22.80;99.90;;;;;;5112238;27;20051;-77
2022/08/22 08:18:51;;;;;;;9.18;3.55;;;23.80;99.90;;;;;;5109509;27;20042;-79
2022/08/22 08:21:42;;;;;;;8.85;4.00;;;24.20;99.90;;;;;;5110557;27;20051;-79
2022/08/22 08:24:14;;;;;;;7.13;3.38;;;24.10;99.90;;;;;;5122900;27;20074;-79
2022/08/22 08:29:36;;;;;;;6.68;3.80;;;23.60;99.90;;;;;;5141056;27;20047;-80
2022/08/22 08:32:04;;;;;;;9.45;4.13;;;23.30;99.90;;;;;;5131847;27;20218;-79
2022/08/22 08:34:31;;;;;;;6.70;3.13;;;23.00;99.90;;;;;;5136479;27;20542;-79
2022/08/22 08:37:04;;;;;;;13.50;3.63;;;23.10;99.90;;;;;;5125615;27;20490;-77
2022/08/22 08:39:35;;;;;;;;;;;23.10;99.90;;;;;;5142367;27;20155;-78
2022/08/22 08:42:23;;;;;;;8.23;3.78;;;23.20;99.90;;;;;;5109028;27;19930;-79
2022/08/22 08:45:22;;;;;;;7.75;3.80;;;23.40;99.90;;;;;;5138149;27;20078;-78
2022/08/22 08:48:23;;;;;;;16.88;4.47;;;23.30;99.90;;;;;;5134008;27;20039;-77
2022/08/22 08:51:03;;;;;;;10.60;4.32;;;23.40;99.90;;;;;;5137233;27;20044;-79
2022/08/22 08:54:01;;;;;;;10.57;3.85;;;23.30;99.90;;;;;;5112793;27;20561;-79
2022/08/22 08:56:32;;;;;;;5.18;2.78;;;23.30;99.90;;;;;;5120385;27;20046;-78
2022/08/22 08:59:25;;;;;;;6.40;3.08;;;23.50;99.90;;;;;;5136767;27;20047;-78
2022/08/22 09:02:00;;;;;;;;;;;24.00;99.90;;;;;;5116113;27;20046;-79
2022/08/22 09:04:36;;;;;;;6.38;3.20;;;24.60;97.80;;;;;;5127129;27;19923;-80
2022/08/22 09:07:20;;;;;;;5.85;2.70;;;25.00;99.90;;;;;;5130082;27;20126;-77
2022/08/22 09:09:57;;;;;;;6.47;3.28;;;25.20;98.90;;;;;;5138293;27;20046;-80
2022/08/22 09:12:54;;;;;;;9.93;3.40;;;25.60;98.30;;;;;;5136374;27;20039;-76
2022/08/22 09:15:30;;;;;;;6.13;3.05;;;26.00;97.00;;;;;;5129329;27;20086;-81
2022/08/22 09:18:20;;;;;;;5.25;2.65;;;26.50;96.70;;;;;;5138158;27;20078;-79
2022/08/22 09:21:05;;;;;;;7.70;2.47;;;26.80;95.40;;;;;;5136563;27;20039;-79
2022/08/22 09:23:40;;;;;;;8.18;2.58;;;27.00;93.20;;;;;;5136069;27;20078;-79
2022/08/22 09:26:24;;;;;;;5.72;2.58;;;26.90;95.20;;;;;;5137614;27;20042;-79
2022/08/22 09:28:59;;;;;;;5.85;2.97;;;26.60;94.50;;;;;;5122018;27;20122;-80
2022/08/22 09:31:28;;;;;;;12.00;3.13;;;26.30;94.40;;;;;;5134374;27;20050;-76
2022/08/22 09:34:12;;;;;;;6.47;3.28;;;26.50;94.60;;;;;;5123709;27;20050;-79
2022/08/22 09:36:57;;;;;;;6.47;3.13;;;26.30;94.20;;;;;;5130430;27;20436;-76
2022/08/22 09:39:35;;;;;;;6.97;3.05;;;26.20;94.90;;;;;;5129353;27;20675;-76
2022/08/22 09:42:12;;;;;;;5.40;2.47;;;25.70;94.80;;;;;;5136481;27;20105;-79
2022/08/22 09:45:10;;;;;;;7.32;3.17;;;25.10;94.00;;;;;;5129669;27;20126;-77
2022/08/22 09:47:54;;;;;;;10.05;3.00;;;24.70;94.60;;;;;;5095412;27;20116;-78
2022/08/22 09:50:31;;;;;;;6.30;2.50;;;24.60;95.50;;;;;;5133184;27;20106;-81
2022/08/22 09:53:09;;;;;;;5.63;2.47;;;24.40;95.60;;;;;;5130367;27;20063;-77
2022/08/22 09:55:58;;;;;;;12.15;3.17;;;24.60;95.50;;;;;;5130345;27;20043;-80
2022/08/22 09:58:41;;;;;;;4.93;2.83;;;25.50;95.30;;;;;;5129483;27;20070;-79
2022/08/22 10:01:27;;;;;;;8.82;3.90;;;26.10;94.60;;;;;;5131412;27;20694;-80
2022/08/22 10:04:31;;;;;;;5.50;2.53;;;26.80;94.10;;;;;;5119047;27;20462;-79
2022/08/22 10:07:31;;;;;;;6.60;2.70;;;27.00;93.20;;;;;;5132004;27;20043;-78
2022/08/22 10:10:33;;;;;;;6.28;2.70;;;26.70;92.90;;;;;;5128729;27;20054;-80
2022/08/22 10:13:06;;;;;;;4.80;3.17;;;26.70;93.30;;;;;;5121028;27;20051;-78
2022/08/22 10:15:44;;;;;;;7.53;2.63;;;26.50;93.90;;;;;;5095066;27;20047;-79
2022/08/22 10:18:38;;;;;;;10.05;2.97;;;26.10;93.40;;;;;;5124181;27;20039;-81
2022/08/22 10:22:01;;;;;;;8.50;3.40;;;25.70;94.10;;;;;;5130700;27;20137;-81
2022/08/22 10:24:46;;;;;;;3.15;2.38;;;25.40;93.30;;;;;;5109624;27;20142;-78
2022/08/22 10:27:19;;;;;;;6.05;2.83;;;25.50;93.80;;;;;;5112057;27;20751;-77
2022/08/22 10:30:19;;;;;;;7.75;2.75;;;25.60;93.90;;;;;;5102475;27;20050;-79
2022/08/22 10:33:17;;;;;;;7.30;2.70;;;25.50;92.70;;;;;;5059316;27;20055;-79
2022/08/22 10:35:49;;;;;;;9.48;2.50;;;25.50;93.50;;;;;;5124515;27;20121;-77
2022/08/22 10:38:24;;;;;;;10.40;3.50;;;25.50;93.30;;;;;;5130322;27;20043;-79
2022/08/22 10:41:06;;;;;;;6.03;2.78;;;25.60;93.50;;;;;;5122264;27;20300;-80
2022/08/22 10:43:52;;;;;;;5.70;2.83;;;25.20;92.80;;;;;;5123275;27;20047;-80
2022/08/22 10:46:29;;;;;;;9.00;3.25;;;25.00;92.20;;;;;;5129424;27;20149;-77
2022/08/22 10:49:01;;;;;;;10.07;3.38;;;25.10;93.30;;;;;;5128109;27;20039;-78
2022/08/22 10:51:57;;;;;;;6.28;3.13;;;25.20;93.20;;;;;;5127977;27;20191;-78
2022/08/22 10:54:43;;;;;;;8.98;3.75;;;25.30;92.90;;;;;;5110450;27;20054;-77
2022/08/22 10:57:31;;;;;;;10.63;2.97;;;25.00;92.90;;;;;;5135584;27;20039;-80
2022/08/22 11:00:10;;;;;;;6.97;3.42;;;24.70;92.80;;;;;;5125848;27;20134;-77
2022/08/22 11:03:05;;;;;;;3.78;2.85;;;24.50;93.60;;;;;;5124291;27;20543;-78
2022/08/22 11:05:41;;;;;;;5.85;2.42;;;24.30;93.00;;;;;;5114216;27;20091;-80
2022/08/22 11:08:22;;;;;;;9.10;2.88;;;24.50;93.40;;;;;;5137561;27;20046;-80
2022/08/22 11:11:15;;;;;;;5.43;2.45;;;24.70;92.80;;;;;;5128673;27;20149;-77
2022/08/22 11:13:49;;;;;;;;;;;24.80;92.40;;;;;;5125209;27;20051;-81
2022/08/22 11:16:41;;;;;;;5.30;2.83;;;24.70;92.80;;;;;;5131829;27;19934;-79
2022/08/22 11:19:13;;;;;;;5.32;2.92;;;24.90;93.00;;;;;;5084067;27;20062;-80
2022/08/22 11:21:45;;;;;;;8.45;2.53;;;24.90;92.80;;;;;;5126966;27;20050;-76
2022/08/22 11:24:26;;;;;;;7.33;2.80;;;25.00;92.70;;;;;;5129197;27;20812;-82
2022/08/22 11:27:10;;;;;;;4.20;2.33;;;25.10;92.40;;;;;;5131525;27;20075;-80
2022/08/22 11:29:38;;;;;;;9.25;2.97;;;25.20;91.80;;;;;;5132716;27;20046;-80
2022/08/22 11:32:59;;;;;;;6.47;2.20;;;25.20;91.70;;;;;;5119116;27;20577;-80
2022/08/22 11:35:48;;;;;;;4.50;2.80;;;25.20;91.60;;;;;;5045238;28;20068;-79
2022/08/22 11:38:30;;;;;;;5.07;2.28;;;25.10;91.60;;;;;;5113622;27;20043;-82
2022/08/22 11:41:11;;;;;;;9.25;2.85;;;25.20;91.70;;;;;;5127502;27;20050;-81
2022/08/22 11:43:51;;;;;;;4.95;2.55;;;25.30;91.40;;;;;;5127986;27;20054;-80
2022/08/22 11:46:28;;;;;;;8.98;3.50;;;25.20;91.40;;;;;;5130551;27;20126;-82
2022/08/22 11:49:13;;;;;;;6.97;2.60;;;25.10;92.00;;;;;;5131268;27;20107;-80
2022/08/22 11:51:54;;;;;;;5.40;2.60;;;25.20;91.90;;;;;;5127203;27;20035;-80
2022/08/22 11:54:37;;;;;;;3.85;1.80;;;25.30;91.70;;;;;;5133508;27;20035;-78
2022/08/22 11:57:16;;;;;;;5.82;2.90;;;25.30;90.80;;;;;;5132756;27;20047;-77
2022/08/22 11:59:42;;;;;;;5.75;2.28;;;25.40;90.60;;;;;;5123463;27;20399;-80
2022/08/22 12:02:17;;;;;;;6.88;2.65;;;25.30;90.70;;;;;;5121231;27;20090;-76
2022/08/22 12:04:53;;;;;;;4.65;2.63;;;25.40;90.60;;;;;;5121803;27;20062;-78
2022/08/22 12:07:30;;;;;;;8.80;2.97;;;25.40;90.30;;;;;;5124825;27;20055;-83
2022/08/22 12:10:03;;;;;;;5.20;2.80;;;25.30;90.00;;;;;;5130391;27;20053;-78
2022/08/22 12:12:47;;;;;;;3.72;2.10;;;25.20;90.00;;;;;;5108795;27;20046;-81
2022/08/22 12:15:16;;;;;;;2.95;1.83;;;25.30;90.00;;;;;;5129990;27;20048;-77
2022/08/22 12:18:20;;;;;;;5.20;2.08;;;25.20;89.90;;;;;;5115099;27;20043;-78
2022/08/22 12:21:01;;;;;;;2.85;2.50;;;25.30;90.00;;;;;;5135480;27;20050;-81
2022/08/22 12:23:46;;;;;;;6.65;2.28;;;25.40;90.00;;;;;;5133844;27;20077;-80
2022/08/22 12:26:35;;;;;;;3.05;1.83;;;25.00;88.90;;;;;;5118667;27;20062;-81
2022/08/22 12:29:41;;;;;;;2.75;1.95;;;25.10;88.40;;;;;;5099784;28;20058;-78
2022/08/22 12:32:12;;;;;;;3.00;1.77;;;25.10;88.10;;;;;;5108125;27;20067;-79
2022/08/22 12:35:23;;;;;;;5.28;2.00;;;25.20;88.40;;;;;;5113928;27;20154;-82
2022/08/22 12:37:58;;;;;;;2.75;1.98;;;25.20;88.90;;;;;;5129270;27;20043;-79
2022/08/22 12:40:36;;;;;;;4.43;2.38;;;25.20;89.30;;;;;;5118004;27;20057;-75
2022/08/22 12:43:16;;;;;;;6.85;2.30;;;25.20;90.10;;;;;;5126202;27;20097;-78
2022/08/22 12:46:07;;;;;;;7.85;2.75;;;25.30;90.10;;;;;;5135159;27;20417;-79
2022/08/22 12:48:38;;;;;;;7.18;3.25;;;25.50;90.60;;;;;;5123879;27;20093;-79
2022/08/22 12:51:44;;;;;;;2.42;2.05;;;25.70;89.90;;;;;;5130305;27;20047;-82
2022/08/22 12:54:16;;;;;;;3.60;2.20;;;25.80;89.70;;;;;;5126710;27;20406;-81
2022/08/22 12:57:00;;;;;;;7.20;2.50;;;25.80;89.30;;;;;;5123207;27;20038;-80
2022/08/22 12:59:41;;;;;;;5.38;2.17;;;25.80;89.60;;;;;;5124187;27;20054;-78
2022/08/22 13:02:15;;;;;;;6.57;2.80;;;25.80;89.60;;;;;;5129371;27;20046;-77
2022/08/22 13:04:55;;;;;;;2.92;2.60;;;25.70;89.60;;;;;;5123921;27;20054;-82
2022/08/22 13:07:36;;;;;;;5.40;2.67;;;25.70;89.30;;;;;;5126694;27;20047;-80
2022/08/22 13:10:12;;;;;;;5.40;2.58;;;25.60;89.80;;;;;;5109562;28;20071;-78
2022/08/22 13:12:48;;;;;;;5.97;2.75;;;25.40;89.50;;;;;;5126186;27;20078;-78
2022/08/22 13:15:20;;;;;;;7.80;2.33;;;25.40;89.50;;;;;;5133385;27;20134;-84
2022/08/22 13:17:49;;;;;;;7.15;2.63;;;25.50;90.20;;;;;;5139597;27;20070;-78
2022/08/22 13:20:31;;;;;;;11.80;3.40;;;25.60;90.00;;;;;;5108911;27;20130;-75
2022/08/22 13:23:07;;;;;;;7.97;2.85;;;25.70;89.90;;;;;;5129689;27;20055;-78
2022/08/22 13:25:55;;;;;;;6.57;2.60;;;25.70;89.30;;;;;;5129988;27;20058;-79
2022/08/22 13:28:21;;;;;;;4.38;2.40;;;25.70;89.10;;;;;;5112848;27;20477;-81
2022/08/22 13:30:52;;;;;;;4.20;2.30;;;25.80;89.90;;;;;;5129570;27;20084;-80
2022/08/22 13:33:33;;;;;;;4.75;3.10;;;25.90;89.30;;;;;;5118389;27;20077;-80
2022/08/22 13:36:07;;;;;;;4.72;2.42;;;26.00;89.40;;;;;;5133001;27;20058;-78
2022/08/22 13:38:45;;;;;;;6.97;3.33;;;25.80;89.60;;;;;;5130954;27;20035;-77
2022/08/22 13:41:17;;;;;;;5.05;2.83;;;25.60;89.70;;;;;;5131547;27;20053;-80
2022/08/22 13:44:12;;;;;;;3.90;2.60;;;25.70;90.30;;;;;;5133853;27;20113;-77
2022/08/22 13:46:40;;;;;;;8.32;3.08;;;25.70;90.20;;;;;;5133859;27;20050;-77
2022/08/22 13:49:11;;;;;;;5.50;2.85;;;25.80;90.20;;;;;;5115565;27;20051;-81
2022/08/22 13:51:46;;;;;;;5.07;2.45;;;25.80;90.30;;;;;;5133224;27;20118;-79
2022/08/22 13:54:14;;;;;;;5.95;2.35;;;25.80;90.30;;;;;;5136179;27;20054;-77
2022/08/22 13:56:59;;;;;;;5.75;2.92;;;26.00;90.20;;;;;;5138563;27;20046;-80
2022/08/22 13:59:47;;;;;;;3.85;2.60;;;26.00;90.00;;;;;;5127722;27;20046;-80
2022/08/22 14:02:27;;;;;;;6.82;2.83;;;25.90;90.30;;;;;;5136826;27;20411;-76
2022/08/22 14:04:58;;;;;;;6.28;2.75;;;25.70;90.30;;;;;;5120875;27;20054;-77